sensor_id;sensor_type;location;lat;lon;timestamp;pressure;altitude;pressure_sealevel;temperature;humidity
11172;BME280;5642;50.830;12.082;2024-02-26T00:01:01;98125.31;;;3.94;38.18
11172;BME280;5642;50.830;12.082;2024-02-26T00:03:27;98133.81;;;4.00;37.81
11172;BME280;5642;50.830;12.082;2024-02-26T00:05:53;98125.19;;;3.99;37.86
11172;BME280;5642;50.830;12.082;2024-02-26T00:08:21;98125.34;;;3.93;37.81
11172;BME280;5642;50.830;12.082;2024-02-26T00:10:47;98117.66;;;3.90;38.20
11172;BME280;5642;50.830;12.082;2024-02-26T00:13:13;98063.44;;;3.48;38.24
11172;BME280;5642;50.830;12.082;2024-02-26T00:15:40;98035.44;;;3.30;38.48
11172;BME280;5642;50.830;12.082;2024-02-26T00:18:06;98126.56;;;3.80;38.36
11172;BME280;5642;50.830;12.082;2024-02-26T00:20:32;98090.63;;;3.66;38.45
11172;BME280;5642;50.830;12.082;2024-02-26T00:22:58;98113.75;;;3.74;38.69
11172;BME280;5642;50.830;12.082;2024-02-26T00:25:24;98078.06;;;3.51;38.27
11172;BME280;5642;50.830;12.082;2024-02-26T00:27:50;98095.94;;;3.62;38.37
11172;BME280;5642;50.830;12.082;2024-02-26T00:30:17;98102.72;;;3.66;38.54
11172;BME280;5642;50.830;12.082;2024-02-26T00:32:43;98099.31;;;3.64;38.67
11172;BME280;5642;50.830;12.082;2024-02-26T00:35:09;98068.59;;;3.50;39.02
11172;BME280;5642;50.830;12.082;2024-02-26T00:37:35;98088.25;;;3.59;38.83
11172;BME280;5642;50.830;12.082;2024-02-26T00:40:02;98087.34;;;3.60;38.53
11172;BME280;5642;50.830;12.082;2024-02-26T00:42:28;98076.22;;;3.56;38.87
11172;BME280;5642;50.830;12.082;2024-02-26T00:44:55;98063.53;;;3.45;38.94
11172;BME280;5642;50.830;12.082;2024-02-26T00:47:20;98080.47;;;3.59;39.05
11172;BME280;5642;50.830;12.082;2024-02-26T00:49:46;98064.31;;;3.49;38.82
11172;BME280;5642;50.830;12.082;2024-02-26T00:52:13;98060.97;;;3.45;38.65
11172;BME280;5642;50.830;12.082;2024-02-26T00:54:40;98068.59;;;3.50;38.42
11172;BME280;5642;50.830;12.082;2024-02-26T00:57:06;98069.34;;;3.55;38.45
11172;BME280;5642;50.830;12.082;2024-02-26T00:59:33;98059.81;;;3.55;38.68
11172;BME280;5642;50.830;12.082;2024-02-26T01:01:58;98043.72;;;3.44;39.00
11172;BME280;5642;50.830;12.082;2024-02-26T01:04:27;98060.66;;;3.58;38.98
11172;BME280;5642;50.830;12.082;2024-02-26T01:06:53;98051.16;;;3.57;38.68
11172;BME280;5642;50.830;12.082;2024-02-26T01:09:19;98000.91;;;3.31;38.78
11172;BME280;5642;50.830;12.082;2024-02-26T01:11:46;98027.22;;;3.48;38.50
11172;BME280;5642;50.830;12.082;2024-02-26T01:14:12;98048.44;;;3.63;38.80
11172;BME280;5642;50.830;12.082;2024-02-26T01:16:38;98044.91;;;3.65;38.60
11172;BME280;5642;50.830;12.082;2024-02-26T01:19:05;98038.13;;;3.61;38.75
11172;BME280;5642;50.830;12.082;2024-02-26T01:21:31;98030.44;;;3.58;38.47
11172;BME280;5642;50.830;12.082;2024-02-26T01:23:57;98042.16;;;3.71;38.77
11172;BME280;5642;50.830;12.082;2024-02-26T01:26:23;98034.41;;;3.71;39.06
11172;BME280;5642;50.830;12.082;2024-02-26T01:28:49;98041.13;;;3.78;38.41
11172;BME280;5642;50.830;12.082;2024-02-26T01:31:15;98033.47;;;3.74;38.93
11172;BME280;5642;50.830;12.082;2024-02-26T01:33:42;98000.41;;;3.51;38.54
11172;BME280;5642;50.830;12.082;2024-02-26T01:36:08;98039.34;;;3.80;38.35
11172;BME280;5642;50.830;12.082;2024-02-26T01:38:35;98005.44;;;3.57;38.90
11172;BME280;5642;50.830;12.082;2024-02-26T01:41:00;97994.47;;;3.47;38.50
11172;BME280;5642;50.830;12.082;2024-02-26T01:43:27;98028.34;;;3.72;38.53
11172;BME280;5642;50.830;12.082;2024-02-26T01:45:53;98015.75;;;3.59;38.88
11172;BME280;5642;50.830;12.082;2024-02-26T01:48:19;98004.66;;;3.53;38.74
11172;BME280;5642;50.830;12.082;2024-02-26T01:50:46;98043.88;;;3.72;38.98
11172;BME280;5642;50.830;12.082;2024-02-26T01:53:12;98038.84;;;3.66;39.04
11172;BME280;5642;50.830;12.082;2024-02-26T01:55:40;98037.03;;;3.70;39.05
11172;BME280;5642;50.830;12.082;2024-02-26T01:58:07;98040.38;;;3.75;39.13
11172;BME280;5642;50.830;12.082;2024-02-26T02:00:35;98055.72;;;3.82;38.61
11172;BME280;5642;50.830;12.082;2024-02-26T02:03:02;98021.66;;;3.64;38.41
11172;BME280;5642;50.830;12.082;2024-02-26T02:05:30;97998.75;;;3.48;38.46
11172;BME280;5642;50.830;12.082;2024-02-26T02:07:57;98024.31;;;3.62;38.68
11172;BME280;5642;50.830;12.082;2024-02-26T02:10:25;98048.09;;;3.76;38.63
11172;BME280;5642;50.830;12.082;2024-02-26T02:12:52;98044.72;;;3.73;39.02
11172;BME280;5642;50.830;12.082;2024-02-26T02:15:18;98057.63;;;3.74;39.13
11172;BME280;5642;50.830;12.082;2024-02-26T02:17:47;98052.66;;;3.67;38.75
11172;BME280;5642;50.830;12.082;2024-02-26T02:20:17;98053.56;;;3.64;39.22
11172;BME280;5642;50.830;12.082;2024-02-26T02:22:45;98016.41;;;3.33;38.80
11172;BME280;5642;50.830;12.082;2024-02-26T02:25:11;98065.75;;;3.61;38.78
11172;BME280;5642;50.830;12.082;2024-02-26T02:27:38;98060.47;;;3.64;38.95
11172;BME280;5642;50.830;12.082;2024-02-26T02:30:06;98059.59;;;3.65;38.91
11172;BME280;5642;50.830;12.082;2024-02-26T02:32:32;98058.69;;;3.67;38.97
11172;BME280;5642;50.830;12.082;2024-02-26T02:34:59;98047.53;;;3.64;38.66
11172;BME280;5642;50.830;12.082;2024-02-26T02:37:25;98033.91;;;3.57;38.92
11172;BME280;5642;50.830;12.082;2024-02-26T02:39:51;98029.47;;;3.62;38.52
11172;BME280;5642;50.830;12.082;2024-02-26T02:42:21;98023.38;;;3.63;38.39
11172;BME280;5642;50.830;12.082;2024-02-26T02:44:47;98052.16;;;3.85;38.86
11172;BME280;5642;50.830;12.082;2024-02-26T02:47:13;98046.06;;;3.87;38.23
11172;BME280;5642;50.830;12.082;2024-02-26T02:49:39;98052.94;;;3.88;38.27
11172;BME280;5642;50.830;12.082;2024-02-26T02:52:05;98041.00;;;3.83;38.46
11172;BME280;5642;50.830;12.082;2024-02-26T02:54:32;98048.69;;;3.86;38.70
11172;BME280;5642;50.830;12.082;2024-02-26T02:56:58;98047.06;;;3.83;38.52
11172;BME280;5642;50.830;12.082;2024-02-26T02:59:25;98007.91;;;3.62;38.62
11172;BME280;5642;50.830;12.082;2024-02-26T03:01:52;98007.25;;;3.53;38.66
11172;BME280;5642;50.830;12.082;2024-02-26T03:04:18;97974.84;;;3.39;38.37
11172;BME280;5642;50.830;12.082;2024-02-26T03:06:44;98013.09;;;3.62;38.41
11172;BME280;5642;50.830;12.082;2024-02-26T03:09:11;98050.56;;;3.81;38.72
11172;BME280;5642;50.830;12.082;2024-02-26T03:11:37;98044.59;;;3.77;38.41
11172;BME280;5642;50.830;12.082;2024-02-26T03:14:03;98056.56;;;3.83;38.77
11172;BME280;5642;50.830;12.082;2024-02-26T03:16:30;98036.97;;;3.73;38.83
11172;BME280;5642;50.830;12.082;2024-02-26T03:18:57;98025.09;;;3.64;38.59
11172;BME280;5642;50.830;12.082;2024-02-26T03:21:25;98052.28;;;3.80;38.50
11172;BME280;5642;50.830;12.082;2024-02-26T03:23:51;98025.88;;;3.68;39.18
11172;BME280;5642;50.830;12.082;2024-02-26T03:26:17;98049.78;;;3.77;38.74
11172;BME280;5642;50.830;12.082;2024-02-26T03:28:43;97971.59;;;3.31;38.89
11172;BME280;5642;50.830;12.082;2024-02-26T03:31:09;98050.81;;;3.70;38.94
11172;BME280;5642;50.830;12.082;2024-02-26T03:33:36;98054.41;;;3.66;38.77
11172;BME280;5642;50.830;12.082;2024-02-26T03:36:02;98051.16;;;3.57;38.82
11172;BME280;5642;50.830;12.082;2024-02-26T03:38:29;98060.69;;;3.56;39.30
11172;BME280;5642;50.830;12.082;2024-02-26T03:54:35;98037.63;;;5.00;38.32
11172;BME280;5642;50.830;12.082;2024-02-26T03:57:00;98056.66;;;4.71;38.78
11172;BME280;5642;50.830;12.082;2024-02-26T03:59:27;98045.53;;;4.38;39.34
11172;BME280;5642;50.830;12.082;2024-02-26T04:01:53;98064.84;;;4.26;38.89
11172;BME280;5642;50.830;12.082;2024-02-26T04:04:19;98047.44;;;4.01;38.86
11172;BME280;5642;50.830;12.082;2024-02-26T04:06:46;98071.47;;;4.06;39.01
11172;BME280;5642;50.830;12.082;2024-02-26T04:09:16;98064.94;;;3.91;39.27
11172;BME280;5642;50.830;12.082;2024-02-26T04:11:43;98067.97;;;3.76;39.31
11172;BME280;5642;50.830;12.082;2024-02-26T04:14:09;98073.34;;;3.68;39.55
11172;BME280;5642;50.830;12.082;2024-02-26T04:16:37;98078.53;;;3.67;39.95
11172;BME280;5642;50.830;12.082;2024-02-26T04:19:06;98081.25;;;3.62;39.86
11172;BME280;5642;50.830;12.082;2024-02-26T04:21:33;98078.00;;;3.54;39.73
11172;BME280;5642;50.830;12.082;2024-02-26T04:23:59;98082.41;;;3.50;39.54
11172;BME280;5642;50.830;12.082;2024-02-26T04:26:29;98057.03;;;3.29;39.50
11172;BME280;5642;50.830;12.082;2024-02-26T04:28:56;98040.16;;;3.13;39.81
11172;BME280;5642;50.830;12.082;2024-02-26T04:31:23;98071.69;;;3.30;39.62
11172;BME280;5642;50.830;12.082;2024-02-26T04:33:49;98084.44;;;3.38;39.76
11172;BME280;5642;50.830;12.082;2024-02-26T04:36:16;98039.34;;;3.12;39.70
11172;BME280;5642;50.830;12.082;2024-02-26T04:38:45;98013.06;;;2.92;39.86
11172;BME280;5642;50.830;12.082;2024-02-26T04:41:12;98077.72;;;3.29;39.70
11172;BME280;5642;50.830;12.082;2024-02-26T04:43:38;98065.00;;;3.20;39.72
11172;BME280;5642;50.830;12.082;2024-02-26T04:46:08;98078.56;;;3.31;39.47
11172;BME280;5642;50.830;12.082;2024-02-26T04:48:35;98063.38;;;3.16;39.72
11172;BME280;5642;50.830;12.082;2024-02-26T04:51:02;98081.16;;;3.31;39.60
11172;BME280;5642;50.830;12.082;2024-02-26T04:53:28;98087.09;;;3.35;39.87
11172;BME280;5642;50.830;12.082;2024-02-26T04:55:54;98068.31;;;3.27;39.75
11172;BME280;5642;50.830;12.082;2024-02-26T04:58:20;98078.28;;;3.42;39.87
11172;BME280;5642;50.830;12.082;2024-02-26T05:00:46;98036.63;;;3.17;39.57
11172;BME280;5642;50.830;12.082;2024-02-26T05:03:12;98053.53;;;3.32;39.36
11172;BME280;5642;50.830;12.082;2024-02-26T05:05:44;98072.03;;;3.50;39.51
11172;BME280;5642;50.830;12.082;2024-02-26T05:08:11;98044.09;;;3.29;39.48
11172;BME280;5642;50.830;12.082;2024-02-26T05:10:37;98057.66;;;3.40;39.90
11172;BME280;5642;50.830;12.082;2024-02-26T05:13:09;98066.16;;;3.44;39.65
11172;BME280;5642;50.830;12.082;2024-02-26T05:15:35;98067.00;;;3.46;39.78
11172;BME280;5642;50.830;12.082;2024-02-26T05:18:02;98066.16;;;3.44;39.86
11172;BME280;5642;50.830;12.082;2024-02-26T05:20:28;98050.84;;;3.35;39.91
11172;BME280;5642;50.830;12.082;2024-02-26T05:22:54;98065.44;;;3.39;39.45
11172;BME280;5642;50.830;12.082;2024-02-26T05:25:20;98058.69;;;3.33;39.44
11172;BME280;5642;50.830;12.082;2024-02-26T05:27:46;98063.66;;;3.41;39.74
11172;BME280;5642;50.830;12.082;2024-02-26T05:30:12;98050.78;;;3.38;39.73
11172;BME280;5642;50.830;12.082;2024-02-26T05:32:38;98044.06;;;3.31;39.58
11172;BME280;5642;50.830;12.082;2024-02-26T05:35:05;98054.97;;;3.43;39.48
11172;BME280;5642;50.830;12.082;2024-02-26T05:37:31;98048.84;;;3.47;39.76
11172;BME280;5642;50.830;12.082;2024-02-26T05:39:59;98052.22;;;3.49;40.08
11172;BME280;5642;50.830;12.082;2024-02-26T05:42:25;97991.94;;;3.12;39.44
11172;BME280;5642;50.830;12.082;2024-02-26T05:44:51;98061.66;;;3.52;39.54
11172;BME280;5642;50.830;12.082;2024-02-26T05:47:17;98067.56;;;3.57;39.20
11172;BME280;5642;50.830;12.082;2024-02-26T05:49:43;98065.75;;;3.61;39.43
11172;BME280;5642;50.830;12.082;2024-02-26T05:52:09;98062.31;;;3.60;39.52
11172;BME280;5642;50.830;12.082;2024-02-26T05:54:35;98075.84;;;3.70;39.76
11172;BME280;5642;50.830;12.082;2024-02-26T05:57:01;98068.88;;;3.73;39.68
11172;BME280;5642;50.830;12.082;2024-02-26T05:59:27;98068.09;;;3.70;39.33
11172;BME280;5642;50.830;12.082;2024-02-26T06:01:53;98057.16;;;3.60;39.45
11172;BME280;5642;50.830;12.082;2024-02-26T06:04:19;98070.00;;;3.63;39.38
11172;BME280;5642;50.830;12.082;2024-02-26T06:06:46;98087.31;;;3.61;39.84
11172;BME280;5642;50.830;12.082;2024-02-26T06:09:12;98074.72;;;3.47;40.10
11172;BME280;5642;50.830;12.082;2024-02-26T06:11:43;98068.06;;;3.37;40.05
11172;BME280;5642;50.830;12.082;2024-02-26T06:14:09;98084.16;;;3.48;39.71
11172;BME280;5642;50.830;12.082;2024-02-26T06:16:35;98089.28;;;3.51;39.42
11172;BME280;5642;50.830;12.082;2024-02-26T06:19:02;98093.56;;;3.52;39.87
11172;BME280;5642;50.830;12.082;2024-02-26T06:21:31;98100.44;;;3.55;39.79
11172;BME280;5642;50.830;12.082;2024-02-26T06:23:57;98094.50;;;3.50;39.72
11172;BME280;5642;50.830;12.082;2024-02-26T06:26:24;98105.47;;;3.60;40.13
11172;BME280;5642;50.830;12.082;2024-02-26T06:28:55;98100.09;;;3.69;39.97
11172;BME280;5642;50.830;12.082;2024-02-26T06:31:22;98080.97;;;3.73;39.81
11172;BME280;5642;50.830;12.082;2024-02-26T06:33:49;98099.34;;;3.98;39.16
11172;BME280;5642;50.830;12.082;2024-02-26T06:36:16;98102.28;;;4.16;38.91
11172;BME280;5642;50.830;12.082;2024-02-26T06:38:42;98037.25;;;3.94;39.48
11172;BME280;5642;50.830;12.082;2024-02-26T06:41:08;98092.69;;;4.51;38.80
11172;BME280;5642;50.830;12.082;2024-02-26T06:43:34;98072.31;;;4.68;38.63
11172;BME280;5642;50.830;12.082;2024-02-26T06:46:01;98111.78;;;5.07;38.53
11172;BME280;5642;50.830;12.082;2024-02-26T06:48:27;98032.34;;;4.75;38.46
11172;BME280;5642;50.830;12.082;2024-02-26T06:50:53;98020.69;;;4.88;38.38
11172;BME280;5642;50.830;12.082;2024-02-26T06:53:19;98105.66;;;5.64;38.17
11172;BME280;5642;50.830;12.082;2024-02-26T06:55:45;98108.28;;;5.90;38.31
11172;BME280;5642;50.830;12.082;2024-02-26T06:58:11;98079.66;;;5.92;38.14
11172;BME280;5642;50.830;12.082;2024-02-26T07:00:37;98099.31;;;6.25;38.39
11172;BME280;5642;50.830;12.082;2024-02-26T07:03:03;98114.03;;;6.49;38.15
11172;BME280;5642;50.830;12.082;2024-02-26T07:05:29;98116.94;;;6.65;37.82
11172;BME280;5642;50.830;12.082;2024-02-26T07:07:55;98119.56;;;6.88;37.64
11172;BME280;5642;50.830;12.082;2024-02-26T07:10:21;98118.53;;;7.37;37.67
11172;BME280;5642;50.830;12.082;2024-02-26T07:12:48;98095.38;;;7.73;36.97
11172;BME280;5642;50.830;12.082;2024-02-26T07:15:14;98093.38;;;8.20;36.93
11172;BME280;5642;50.830;12.082;2024-02-26T07:17:40;98099.56;;;8.77;36.92
11172;BME280;5642;50.830;12.082;2024-02-26T07:20:13;98101.84;;;9.22;36.46
11172;BME280;5642;50.830;12.082;2024-02-26T07:22:40;98096.56;;;9.60;36.14
11172;BME280;5642;50.830;12.082;2024-02-26T07:25:08;98106.13;;;9.95;35.98
11172;BME280;5642;50.830;12.082;2024-02-26T07:27:34;98045.38;;;9.90;36.22
11172;BME280;5642;50.830;12.082;2024-02-26T07:30:01;98104.22;;;10.50;35.79
11172;BME280;5642;50.830;12.082;2024-02-26T07:32:27;98108.03;;;10.78;35.89
11172;BME280;5642;50.830;12.082;2024-02-26T07:34:53;98057.94;;;10.84;35.85
11172;BME280;5642;50.830;12.082;2024-02-26T07:37:19;98090.88;;;11.66;35.44
11172;BME280;5642;50.830;12.082;2024-02-26T07:39:45;98025.78;;;11.89;35.06
11172;BME280;5642;50.830;12.082;2024-02-26T07:42:11;98019.22;;;12.54;34.46
11172;BME280;5642;50.830;12.082;2024-02-26T07:44:37;98024.97;;;13.16;34.39
11172;BME280;5642;50.830;12.082;2024-02-26T07:47:03;98096.69;;;14.13;34.37
11172;BME280;5642;50.830;12.082;2024-02-26T07:49:29;98090.66;;;14.75;33.93
11172;BME280;5642;50.830;12.082;2024-02-26T07:51:55;98096.00;;;15.48;33.63
11172;BME280;5642;50.830;12.082;2024-02-26T07:54:25;98080.28;;;16.18;33.52
11172;BME280;5642;50.830;12.082;2024-02-26T07:56:51;98089.44;;;17.16;33.11
11172;BME280;5642;50.830;12.082;2024-02-26T07:59:18;98048.91;;;17.81;32.79
11172;BME280;5642;50.830;12.082;2024-02-26T08:01:44;98053.47;;;18.73;32.45
11172;BME280;5642;50.830;12.082;2024-02-26T08:04:14;98090.41;;;19.75;32.32
11172;BME280;5642;50.830;12.082;2024-02-26T08:06:41;98036.03;;;20.08;32.00
11172;BME280;5642;50.830;12.082;2024-02-26T08:09:08;98095.22;;;20.49;32.23
11172;BME280;5642;50.830;12.082;2024-02-26T08:11:35;98087.66;;;20.15;32.67
11172;BME280;5642;50.830;12.082;2024-02-26T08:14:01;98074.31;;;19.58;33.03
11172;BME280;5642;50.830;12.082;2024-02-26T08:16:28;98107.22;;;19.05;33.44
11172;BME280;5642;50.830;12.082;2024-02-26T08:18:54;98105.84;;;18.39;34.01
11172;BME280;5642;50.830;12.082;2024-02-26T08:21:20;98109.19;;;17.77;34.57
11172;BME280;5642;50.830;12.082;2024-02-26T08:23:48;98112.88;;;17.20;34.87
11172;BME280;5642;50.830;12.082;2024-02-26T08:26:15;98116.69;;;16.72;34.99
11172;BME280;5642;50.830;12.082;2024-02-26T08:28:41;98117.38;;;16.28;35.10
11172;BME280;5642;50.830;12.082;2024-02-26T08:31:07;98119.50;;;15.88;35.23
11172;BME280;5642;50.830;12.082;2024-02-26T08:33:33;98068.63;;;15.25;35.47
11172;BME280;5642;50.830;12.082;2024-02-26T08:36:05;98124.31;;;15.21;35.65
11172;BME280;5642;50.830;12.082;2024-02-26T08:38:32;98113.28;;;15.03;35.80
11172;BME280;5642;50.830;12.082;2024-02-26T08:41:01;98045.41;;;14.43;35.54
11172;BME280;5642;50.830;12.082;2024-02-26T08:43:28;98125.09;;;14.85;35.56
11172;BME280;5642;50.830;12.082;2024-02-26T08:45:55;98107.72;;;14.82;35.54
11172;BME280;5642;50.830;12.082;2024-02-26T08:48:21;98122.78;;;15.06;35.25
11172;BME280;5642;50.830;12.082;2024-02-26T08:50:47;98130.66;;;15.31;35.15
11172;BME280;5642;50.830;12.082;2024-02-26T08:53:13;98126.41;;;15.54;34.93
11172;BME280;5642;50.830;12.082;2024-02-26T08:55:42;98121.81;;;15.69;34.67
11172;BME280;5642;50.830;12.082;2024-02-26T08:58:08;98093.84;;;15.66;34.46
11172;BME280;5642;50.830;12.082;2024-02-26T09:00:35;98081.38;;;15.68;34.70
11172;BME280;5642;50.830;12.082;2024-02-26T09:03:02;98118.84;;;15.97;34.70
11172;BME280;5642;50.830;12.082;2024-02-26T09:05:28;98049.66;;;15.44;34.65
11172;BME280;5642;50.830;12.082;2024-02-26T09:07:54;98137.03;;;15.89;34.75
11172;BME280;5642;50.830;12.082;2024-02-26T09:10:20;98133.28;;;15.80;34.70
11172;BME280;5642;50.830;12.082;2024-02-26T09:12:46;98132.97;;;15.72;34.77
11172;BME280;5642;50.830;12.082;2024-02-26T09:15:12;98093.66;;;15.44;34.94
11172;BME280;5642;50.830;12.082;2024-02-26T09:17:39;98112.38;;;15.53;34.95
11172;BME280;5642;50.830;12.082;2024-02-26T09:20:06;98133.84;;;15.73;34.84
11172;BME280;5642;50.830;12.082;2024-02-26T09:22:35;98129.97;;;15.89;34.84
11172;BME280;5642;50.830;12.082;2024-02-26T09:25:04;98113.47;;;15.98;34.75
11172;BME280;5642;50.830;12.082;2024-02-26T09:27:31;98048.06;;;15.78;34.61
11172;BME280;5642;50.830;12.082;2024-02-26T09:29:57;98113.72;;;16.41;34.28
11172;BME280;5642;50.830;12.082;2024-02-26T09:32:23;98106.78;;;16.52;34.37
11172;BME280;5642;50.830;12.082;2024-02-26T09:34:51;98110.25;;;16.52;34.71
11172;BME280;5642;50.830;12.082;2024-02-26T09:37:17;98105.28;;;16.36;34.63
11172;BME280;5642;50.830;12.082;2024-02-26T09:39:42;98091.63;;;16.08;34.90
11172;BME280;5642;50.830;12.082;2024-02-26T09:42:12;98097.19;;;15.92;34.98
11172;BME280;5642;50.830;12.082;2024-02-26T09:44:40;98105.44;;;15.76;35.13
11172;BME280;5642;50.830;12.082;2024-02-26T09:47:09;98121.09;;;15.66;35.25
11172;BME280;5642;50.830;12.082;2024-02-26T09:49:36;98117.66;;;15.53;35.25
11172;BME280;5642;50.830;12.082;2024-02-26T09:52:04;98127.38;;;15.40;35.24
11172;BME280;5642;50.830;12.082;2024-02-26T09:54:31;98129.19;;;15.27;35.39
11172;BME280;5642;50.830;12.082;2024-02-26T09:57:02;98127.50;;;15.13;35.34
11172;BME280;5642;50.830;12.082;2024-02-26T09:59:41;98124.47;;;14.94;35.36
11172;BME280;5642;50.830;12.082;2024-02-26T10:02:14;98131.44;;;14.82;35.50
11172;BME280;5642;50.830;12.082;2024-02-26T10:04:42;98125.34;;;14.69;35.56
11172;BME280;5642;50.830;12.082;2024-02-26T10:07:13;98122.91;;;14.54;35.60
11172;BME280;5642;50.830;12.082;2024-02-26T10:09:40;98117.38;;;14.44;35.62
11172;BME280;5642;50.830;12.082;2024-02-26T10:12:09;98145.75;;;14.53;35.66
11172;BME280;5642;50.830;12.082;2024-02-26T10:14:37;98112.59;;;14.36;35.65
11172;BME280;5642;50.830;12.082;2024-02-26T10:17:07;98138.78;;;14.52;35.62
11172;BME280;5642;50.830;12.082;2024-02-26T10:19:35;98139.66;;;14.53;35.65
11172;BME280;5642;50.830;12.082;2024-02-26T10:22:01;98117.72;;;14.39;35.66
11172;BME280;5642;50.830;12.082;2024-02-26T10:24:29;98143.22;;;14.52;35.65
11172;BME280;5642;50.830;12.082;2024-02-26T10:26:57;98128.47;;;14.49;35.58
11172;BME280;5642;50.830;12.082;2024-02-26T10:29:25;98117.72;;;14.39;35.68
11172;BME280;5642;50.830;12.082;2024-02-26T10:31:52;98134.28;;;14.54;35.61
11172;BME280;5642;50.830;12.082;2024-02-26T10:34:18;98147.34;;;14.68;35.45
11172;BME280;5642;50.830;12.082;2024-02-26T10:36:44;98125.84;;;14.62;35.49
11172;BME280;5642;50.830;12.082;2024-02-26T10:39:14;98137.13;;;14.89;35.38
11172;BME280;5642;50.830;12.082;2024-02-26T10:41:41;98075.78;;;14.62;35.39
11172;BME280;5642;50.830;12.082;2024-02-26T10:44:09;98106.84;;;14.95;35.33
11172;BME280;5642;50.830;12.082;2024-02-26T10:46:42;98026.66;;;14.61;35.44
11172;BME280;5642;50.830;12.082;2024-02-26T10:49:16;98086.47;;;15.09;35.25
11172;BME280;5642;50.830;12.082;2024-02-26T10:51:46;98091.56;;;15.12;35.33
11172;BME280;5642;50.830;12.082;2024-02-26T10:54:16;98121.78;;;15.32;35.43
11172;BME280;5642;50.830;12.082;2024-02-26T10:56:42;98107.09;;;15.28;35.39
11172;BME280;5642;50.830;12.082;2024-02-26T10:59:10;98108.69;;;15.31;35.56
11172;BME280;5642;50.830;12.082;2024-02-26T11:01:37;98134.34;;;15.41;35.50
11172;BME280;5642;50.830;12.082;2024-02-26T11:04:04;98090.78;;;15.23;35.52
11172;BME280;5642;50.830;12.082;2024-02-26T11:06:32;98124.78;;;15.51;35.48
11172;BME280;5642;50.830;12.082;2024-02-26T11:09:01;98117.31;;;15.58;35.29
11172;BME280;5642;50.830;12.082;2024-02-26T11:11:29;98094.50;;;15.57;35.46
11172;BME280;5642;50.830;12.082;2024-02-26T11:13:57;98061.16;;;15.43;35.46
11172;BME280;5642;50.830;12.082;2024-02-26T11:16:25;98130.06;;;15.88;35.35
11172;BME280;5642;50.830;12.082;2024-02-26T11:18:51;98137.91;;;15.89;35.44
11172;BME280;5642;50.830;12.082;2024-02-26T11:21:21;98142.72;;;15.95;35.18
11172;BME280;5642;50.830;12.082;2024-02-26T11:23:57;98121.31;;;15.87;35.39
11172;BME280;5642;50.830;12.082;2024-02-26T11:26:24;98130.19;;;16.10;35.38
11172;BME280;5642;50.830;12.082;2024-02-26T11:28:52;98085.81;;;15.91;35.40
11172;BME280;5642;50.830;12.082;2024-02-26T11:31:19;98134.06;;;16.17;35.39
11172;BME280;5642;50.830;12.082;2024-02-26T11:33:52;98146.69;;;16.25;35.31
11172;BME280;5642;50.830;12.082;2024-02-26T11:36:19;98109.66;;;16.14;35.37
11172;BME280;5642;50.830;12.082;2024-02-26T11:38:46;98137.94;;;16.35;35.44
11172;BME280;5642;50.830;12.082;2024-02-26T11:41:15;98127.97;;;16.28;35.37
11172;BME280;5642;50.830;12.082;2024-02-26T11:44:04;98098.97;;;16.15;35.22
11172;BME280;5642;50.830;12.082;2024-02-26T11:46:33;98136.41;;;16.33;35.38
11172;BME280;5642;50.830;12.082;2024-02-26T11:51:52;98128.78;;;16.17;35.49
11172;BME280;5642;50.830;12.082;2024-02-26T11:54:57;98145.22;;;16.21;35.42
11172;BME280;5642;50.830;12.082;2024-02-26T11:57:32;98141.13;;;16.17;35.53
11172;BME280;5642;50.830;12.082;2024-02-26T12:02:46;98142.38;;;16.24;35.36
11172;BME280;5642;50.830;12.082;2024-02-26T12:05:15;98140.56;;;16.24;35.54
11172;BME280;5642;50.830;12.082;2024-02-26T12:07:47;98144.56;;;16.30;35.68
11172;BME280;5642;50.830;12.082;2024-02-26T12:10:43;98157.81;;;16.41;35.40
11172;BME280;5642;50.830;12.082;2024-02-26T12:13:16;98144.59;;;16.41;35.49
11172;BME280;5642;50.830;12.082;2024-02-26T12:15:55;98151.59;;;16.53;35.42
11172;BME280;5642;50.830;12.082;2024-02-26T12:18:22;98127.75;;;16.42;35.37
11172;BME280;5642;50.830;12.082;2024-02-26T12:21:02;98150.97;;;16.73;35.33
11172;BME280;5642;50.830;12.082;2024-02-26T12:23:29;98155.66;;;16.81;35.20
11172;BME280;5642;50.830;12.082;2024-02-26T12:26:02;98128.97;;;16.84;35.33
11172;BME280;5642;50.830;12.082;2024-02-26T12:28:29;98124.19;;;16.89;35.17
11172;BME280;5642;50.830;12.082;2024-02-26T12:30:55;98116.84;;;16.93;35.24
11172;BME280;5642;50.830;12.082;2024-02-26T12:33:22;98137.78;;;17.18;35.21
11172;BME280;5642;50.830;12.082;2024-02-26T12:35:49;98126.25;;;17.19;35.32
11172;BME280;5642;50.830;12.082;2024-02-26T12:38:15;98131.06;;;17.25;35.22
11172;BME280;5642;50.830;12.082;2024-02-26T12:40:44;98123.34;;;17.22;35.09
11172;BME280;5642;50.830;12.082;2024-02-26T12:43:10;98142.09;;;17.30;35.41
11172;BME280;5642;50.830;12.082;2024-02-26T12:45:40;98107.22;;;17.14;35.22
11172;BME280;5642;50.830;12.082;2024-02-26T12:48:07;98139.34;;;17.32;35.26
11172;BME280;5642;50.830;12.082;2024-02-26T12:50:34;98134.75;;;17.34;35.33
11172;BME280;5642;50.830;12.082;2024-02-26T12:53:01;98142.81;;;17.43;35.32
11172;BME280;5642;50.830;12.082;2024-02-26T12:55:29;98100.03;;;17.16;35.34
11172;BME280;5642;50.830;12.082;2024-02-26T12:58:00;98138.13;;;17.47;35.34
11172;BME280;5642;50.830;12.082;2024-02-26T13:00:28;98109.28;;;17.33;35.23
11172;BME280;5642;50.830;12.082;2024-02-26T13:02:55;98135.94;;;17.41;35.43
11172;BME280;5642;50.830;12.082;2024-02-26T13:05:22;98147.38;;;17.41;35.39
11172;BME280;5642;50.830;12.082;2024-02-26T13:07:48;98145.72;;;17.40;35.46
11172;BME280;5642;50.830;12.082;2024-02-26T13:10:15;98154.13;;;17.45;35.35
11172;BME280;5642;50.830;12.082;2024-02-26T13:12:44;98132.09;;;17.34;35.45
11172;BME280;5642;50.830;12.082;2024-02-26T13:15:14;98125.28;;;17.31;35.46
11172;BME280;5642;50.830;12.082;2024-02-26T13:17:41;98133.78;;;17.35;35.32
11172;BME280;5642;50.830;12.082;2024-02-26T13:20:08;98160.00;;;17.49;35.19
11172;BME280;5642;50.830;12.082;2024-02-26T13:22:36;98105.31;;;17.16;35.34
11172;BME280;5642;50.830;12.082;2024-02-26T13:25:02;98172.19;;;17.51;35.33